Terminal Aerodrome Forecast
Issued by NWS Chicago, IL

Home | Current Version | Previous Version | Graphics & Text | Print | Product List | Glossary On
Versions: 1 2 3 4 5 6 7 8 9 10 11 12 13 14 15 16 17 18 19 20 21 22 23 24 25 26 27 28 29
575
FTUS43 KLOT 201619 AAB
TAFRFD
TAF AMD
KRFD 201619Z 2016/2112 VRB05KT 2SM -SHRA BR OVC005
      TEMPO 2016/2017 1/4SM SHRA FG
     FM201700 25008KT 2SM RA BR SCT004 OVC008
      TEMPO 2017/2021 1SM TSRA BR OVC004CB
     FM202100 30011KT 2SM SHRA BR OVC004
     FM210100 31012G17KT 4SM -FZRAPL BR OVC008
     FM210300 32014G20KT P6SM SCT010 BKN080=

USA.gov is the U.S. government's official web portal to all federal, state and local government web resources and services.